Liebenthal, Kansas
Current Conditions -  °F | °C
As of 6:15 AM on Friday 31 Oct 2014 (Local Time) from KHYS Reporting Station
Overcast Overcast  
Wind Chill: 28°   Ceiling: 1300
Heat Index: 36°   Visibility: 10mi
Dew Point: 27°   Wind: 10mph
Humidity: 70%   Direction: 30°NNE
Pressure: 30.49"   Gusts: NA
Location:  38.66°N, 99.32°W
Report Text: KHYS 311115Z AUTO 03009KT 10SM OVC013 02/M03 A3049 RMK AO1
Loading
Personal Weather Stations






























Interactive Weather Map
Tropical Storm Tracking
New forecast layout! Learn more

10-Day Weather Forecast

Advertisements
Track Severe Weather on mobile